Time;durP1;ratioP1;P1;durP2;ratioP2;P2;SDS_P1;SDS_P2;PMS_P1;PMS_P2;Temp;Humidity;BMP_temperature;BMP_pressure;BME280_temperature;BME280_humidity;BME280_pressure;Samples;Min_cycle;Max_cycle;Signal;HPM_P1;HPM_P2
2022/12/24 00:03:02;;;;;;;;;24.00;23.00;;;;;11.34;60.95;97767.19;6239160;27;96498;-61
2022/12/24 00:06:07;;;;;;;;;25.00;22.00;;;;;11.44;60.36;97767.28;6239933;28;96233;-61
2022/12/24 00:09:12;;;;;;;;;20.00;18.25;;;;;11.45;60.07;97763.53;6243124;27;96022;-63
2022/12/24 00:12:15;;;;;;;;;19.80;19.00;;;;;11.48;60.26;97762.22;6239487;27;97650;-61
2022/12/24 00:15:19;;;;;;;;;20.25;19.00;;;;;11.48;60.33;97771.13;6239374;27;96578;-61
2022/12/24 00:18:22;;;;;;;;;23.00;23.00;;;;;11.46;60.68;97777.84;6222892;28;96715;-61
2022/12/24 00:21:26;;;;;;;;;24.00;23.20;;;;;11.45;60.92;97777.03;6242808;27;96207;-62
2022/12/24 00:24:31;;;;;;;;;23.00;21.00;;;;;11.45;60.80;97760.00;6239426;28;96263;-63
2022/12/24 00:27:34;;;;;;;;;24.80;22.80;;;;;11.44;60.74;97759.19;6243509;27;96337;-62
2022/12/24 00:30:38;;;;;;;;;23.00;22.40;;;;;11.44;60.92;97756.50;6245490;27;97330;-63
2022/12/24 00:33:42;;;;;;;;;24.00;23.00;;;;;11.37;60.92;97753.19;6239585;27;97032;-63
2022/12/24 00:36:45;;;;;;;;;22.00;20.00;;;;;11.35;61.17;97744.53;6242005;27;96838;-62
2022/12/24 00:39:50;;;;;;;;;20.00;19.60;;;;;11.35;61.33;97747.22;6223040;27;96629;-62
2022/12/24 00:42:53;;;;;;;;;21.80;19.80;;;;;11.34;61.67;97731.31;6231817;27;96383;-64
2022/12/24 00:45:58;;;;;;;;;23.00;20.40;;;;;11.29;61.38;97730.16;6240381;27;96913;-62
2022/12/24 00:49:02;;;;;;;;;21.00;19.20;;;;;11.27;61.27;97721.53;6254459;27;96384;-62
2022/12/24 00:52:06;;;;;;;;;24.00;21.00;;;;;11.21;61.13;97722.53;6246544;27;96557;-62
2022/12/24 00:55:11;;;;;;;;;21.75;18.50;;;;;11.21;61.33;97736.03;6241738;27;96475;-65
2022/12/24 00:58:14;;;;;;;;;16.20;15.00;;;;;11.18;62.42;97714.97;6239460;27;97134;-62
2022/12/24 01:01:18;;;;;;;;;17.67;15.33;;;;;11.27;62.66;97713.44;6250040;27;96503;-63
2022/12/24 01:07:44;;;;;;;;;15.80;15.20;;;;;11.18;61.77;97671.81;6234198;28;96897;-62
2022/12/24 01:10:50;;;;;;;;;16.00;14.00;;;;;11.41;63.39;97697.66;6235708;28;96392;-61
2022/12/24 01:13:55;;;;;;;;;12.20;12.20;;;;;11.38;63.18;97694.66;6233548;28;96367;-61
2022/12/24 01:16:59;;;;;;;;;12.00;11.00;;;;;11.39;63.79;97696.25;6220377;27;96291;-61
2022/12/24 01:20:03;;;;;;;;;13.80;12.80;;;;;11.39;64.31;97697.06;6239007;28;96687;-61
2022/12/24 01:23:07;;;;;;;;;12.00;10.00;;;;;11.33;64.60;97681.94;6253771;27;96314;-62
2022/12/24 01:26:12;;;;;;;;;10.75;10.00;;;;;11.36;64.82;97670.63;6219214;28;96387;-62
2022/12/24 01:29:16;;;;;;;;;9.00;9.00;;;;;11.34;64.68;97658.47;6234203;28;96519;-62
2022/12/24 01:32:19;;;;;;;;;8.80;8.00;;;;;11.46;64.83;97670.72;6235550;28;96335;-61
2022/12/24 01:35:22;;;;;;;;;9.00;8.00;;;;;11.45;65.40;97671.78;6240013;27;96259;-62
2022/12/24 01:38:26;;;;;;;;;7.40;7.00;;;;;11.45;65.48;97671.78;6239474;27;96346;-61
2022/12/24 01:45:42;;;;;;;;;4.40;4.40;;;;;11.56;65.60;97664.59;6158241;28;96885;-61
2022/12/24 01:48:49;;;;;;;;;7.00;7.00;;;;;11.61;65.24;97660.03;6068555;28;96255;-61
2022/12/24 01:51:58;;;;;;;;;8.00;7.40;;;;;11.63;64.93;97667.88;6134243;28;96988;-62
2022/12/24 01:55:05;;;;;;;;;6.00;6.00;;;;;11.63;65.23;97665.19;6137704;28;96982;-61
2022/12/24 01:58:13;;;;;;;;;7.00;7.00;;;;;11.65;64.81;97671.13;6135957;28;96808;-61
2022/12/24 02:01:17;;;;;;;;;6.00;6.00;;;;;11.74;64.38;97675.00;6117080;28;97770;-62
2022/12/24 02:04:30;;;;;;;;;5.25;5.25;;;;;11.81;64.12;97680.19;6136373;28;96808;-62
2022/12/24 02:07:34;;;;;;;;;5.80;5.20;;;;;11.87;63.77;97673.78;6140017;28;96610;-61
2022/12/24 02:10:38;;;;;;;;;5.50;5.00;;;;;11.92;63.52;97680.03;6161716;28;96289;-62
2022/12/24 02:13:46;;;;;;;;;5.60;5.00;;;;;11.93;63.42;97661.91;6159199;28;96772;-63
2022/12/24 02:16:58;;;;;;;;;5.00;5.00;;;;;11.93;62.72;97678.09;6150097;28;96492;-63
2022/12/24 02:20:52;;;;;;;;;5.60;5.00;;;;;11.91;63.33;97664.06;6161328;28;96560;-62
2022/12/24 02:24:38;;;;;;;;;5.00;5.00;;;;;11.91;62.81;97655.97;6120520;28;96569;-62
2022/12/24 02:27:54;;;;;;;;;5.00;5.00;;;;;11.92;62.90;97663.81;6163053;28;96220;-61
2022/12/24 02:31:03;;;;;;;;;6.40;6.00;;;;;11.83;63.19;97646.44;6215058;28;96449;-61
2022/12/24 02:34:13;;;;;;;;;5.25;5.00;;;;;11.95;63.29;97665.16;6216333;28;97487;-63
2022/12/24 02:37:24;;;;;;;;;4.80;4.80;;;;;11.90;63.07;97654.34;6213855;28;96991;-63
2022/12/24 02:40:31;;;;;;;;;3.75;3.00;;;;;11.83;64.61;97669.94;6208268;28;96651;-63
2022/12/24 02:43:39;;;;;;;;;4.00;4.00;;;;;11.88;64.34;97659.97;6216580;28;96261;-63
2022/12/24 02:46:45;;;;;;;;;6.00;5.33;;;;;11.89;64.53;97656.22;6216880;28;96459;-62
2022/12/24 02:49:49;;;;;;;;;7.00;7.00;;;;;11.82;64.10;97652.13;6216940;28;96226;-61
2022/12/24 02:52:52;;;;;;;;;5.60;4.00;;;;;11.81;63.82;97653.19;6200646;28;96242;-62
2022/12/24 02:56:12;;;;;;;;;4.50;4.50;;;;;11.81;63.80;97658.59;6216580;28;96357;-61
2022/12/24 02:59:48;;;;;;;;;7.00;6.00;;;;;11.85;64.73;97657.81;6216580;28;96400;-62
2022/12/24 03:03:07;;;;;;;;;6.40;6.40;;;;;11.85;64.53;97651.59;6211630;28;97009;-62
2022/12/24 03:06:23;;;;;;;;;6.60;6.00;;;;;11.82;65.27;97650.25;6208506;28;96802;-62
2022/12/24 03:09:32;;;;;;;;;8.00;7.40;;;;;11.84;65.43;97652.66;6225942;28;96610;-61
2022/12/24 03:12:40;;;;;;;;;6.00;6.00;;;;;11.81;65.35;97664.81;6222580;28;96426;-62
2022/12/24 03:15:46;;;;;;;;;4.80;4.80;;;;;11.85;65.34;97659.69;6245064;27;96468;-61
2022/12/24 03:18:54;;;;;;;;;8.00;7.00;;;;;11.86;65.25;97666.72;6244522;27;95976;-61
2022/12/24 03:22:02;;;;;;;;;5.25;5.25;;;;;11.77;66.08;97663.72;6228792;27;96262;-62
2022/12/24 03:25:06;;;;;;;;;6.00;6.00;;;;;11.79;65.63;97668.81;6237131;27;96233;-61
2022/12/24 03:28:12;;;;;;;;;7.00;7.00;;;;;11.80;65.76;97657.78;6243881;27;96244;-61
2022/12/24 03:31:17;;;;;;;;;6.00;6.00;;;;;11.72;65.78;97658.25;6224277;28;96279;-61
2022/12/24 03:34:22;;;;;;;;;7.60;6.60;;;;;11.83;65.36;97668.03;6211491;28;96470;-64
2022/12/24 03:37:26;;;;;;;;;8.00;7.00;;;;;11.80;65.84;97665.06;6230408;27;96291;-62
2022/12/24 03:40:31;;;;;;;;;9.40;8.00;;;;;11.83;65.47;97665.34;6248549;27;96197;-62
2022/12/24 03:43:34;;;;;;;;;8.00;7.40;;;;;11.87;65.40;97671.88;6240656;27;96725;-62
2022/12/24 03:46:38;;;;;;;;;7.00;7.00;;;;;11.91;64.79;97673.00;6247863;27;96362;-62
2022/12/24 03:49:42;;;;;;;;;8.00;8.00;;;;;11.97;64.74;97681.94;6259372;27;97143;-61
2022/12/24 03:52:46;;;;;;;;;7.25;7.25;;;;;11.97;64.16;97668.44;6240435;27;96477;-61
2022/12/24 03:55:49;;;;;;;;;7.00;6.20;;;;;11.94;64.08;97664.34;6237694;27;96495;-60
2022/12/24 03:58:52;;;;;;;;;7.00;7.00;;;;;11.94;64.46;97667.06;6242805;27;96460;-61
2022/12/24 04:01:56;;;;;;;;;6.50;6.50;;;;;11.98;64.13;97670.03;6228424;28;96556;-61
2022/12/24 04:05:01;;;;;;;;;9.00;8.40;;;;;11.99;63.85;97668.97;6240793;27;96480;-61
2022/12/24 04:08:04;;;;;;;;;12.00;10.00;;;;;12.00;63.84;97674.13;6243622;27;96450;-61
2022/12/24 04:11:15;;;;;;;;;7.00;7.00;;;;;11.91;63.45;97661.38;6237498;27;96287;-62
2022/12/24 04:14:19;;;;;;;;;6.75;6.25;;;;;12.01;63.27;97683.88;6256568;27;96779;-62
2022/12/24 04:17:22;;;;;;;;;9.50;8.50;;;;;11.95;63.30;97679.50;6232050;27;97024;-62
2022/12/24 04:20:27;;;;;;;;;8.00;8.00;;;;;11.94;63.38;97685.97;6224196;28;98459;-62
2022/12/24 04:23:31;;;;;;;;;9.00;8.60;;;;;11.90;63.27;97679.47;6239759;27;96821;-61
2022/12/24 04:26:34;;;;;;;;;7.40;7.40;;;;;11.94;63.25;97682.44;6220522;27;96404;-61
2022/12/24 04:29:38;;;;;;;;;7.80;7.80;;;;;11.89;63.21;97694.03;6237471;28;96339;-62
2022/12/24 04:32:41;;;;;;;;;12.00;11.50;;;;;11.83;63.48;97691.53;6254750;27;96325;-62
2022/12/24 04:35:46;;;;;;;;;10.00;10.00;;;;;11.79;63.87;97687.72;6238303;27;97013;-62
2022/12/24 04:38:49;;;;;;;;;7.20;6.80;;;;;11.74;63.92;97685.81;6240255;27;96348;-62
2022/12/24 04:41:53;;;;;;;;;9.00;8.00;;;;;11.67;63.83;97687.91;6241596;27;96631;-63
2022/12/24 04:44:57;;;;;;;;;9.80;9.80;;;;;11.71;63.84;97689.00;6248782;27;96411;-62
2022/12/24 04:48:01;;;;;;;;;11.00;11.00;;;;;11.71;63.87;97697.91;6227110;28;96513;-66
2022/12/24 04:51:07;;;;;;;;;11.00;11.00;;;;;11.69;63.75;97689.25;6233335;28;96443;-62
2022/12/24 04:54:10;;;;;;;;;14.00;13.60;;;;;11.67;63.72;97688.72;6235859;28;96274;-61
2022/12/24 04:57:14;;;;;;;;;14.00;13.00;;;;;11.63;64.00;97686.78;6251436;27;96311;-61
2022/12/24 05:00:17;;;;;;;;;12.80;12.00;;;;;11.59;63.85;97680.25;6232856;27;96160;-64
2022/12/24 05:03:21;;;;;;;;;14.20;13.20;;;;;11.53;63.62;97689.41;6223166;27;97708;-62
2022/12/24 05:06:28;;;;;;;;;18.00;16.00;;;;;11.46;63.16;97688.78;6225477;28;96757;-61
2022/12/24 05:09:32;;;;;;;;;18.25;17.00;;;;;11.33;63.34;97690.03;6238300;27;96510;-62
2022/12/24 05:12:35;;;;;;;;;20.40;18.40;;;;;11.18;63.72;97684.47;6241335;27;96115;-61
2022/12/24 05:15:38;;;;;;;;;22.40;19.00;;;;;11.19;63.79;97692.28;6232804;28;96449;-62
2022/12/24 05:18:42;;;;;;;;;19.00;18.00;;;;;11.12;64.03;97694.41;6234605;27;96266;-60
2022/12/24 05:26:20;;;;;;;;;17.00;15.00;;;;;11.03;64.83;97693.22;6236300;27;97274;-60
2022/12/24 05:28:31;;;;;;;;;16.00;15.50;;;;;10.97;65.38;97705.00;6234295;27;96924;-60
2022/12/24 05:31:35;;;;;;;;;19.00;17.00;;;;;10.91;65.75;97706.03;6215188;28;96721;-60
2022/12/24 05:34:38;;;;;;;;;25.40;22.80;;;;;10.90;65.83;97712.47;6233497;28;96824;-62
2022/12/24 05:37:43;;;;;;;;;19.50;17.00;;;;;10.86;65.64;97709.47;6219811;27;96658;-61
2022/12/24 05:40:47;;;;;;;;;19.60;16.60;;;;;10.56;66.11;97679.44;6238068;27;96349;-61
2022/12/24 05:43:51;;;;;;;;;17.40;17.40;;;;;10.69;66.23;97713.31;6229968;28;98279;-61
2022/12/24 05:46:55;;;;;;;;;21.00;19.60;;;;;10.67;66.09;97710.03;6240212;28;96840;-61
2022/12/24 05:49:59;;;;;;;;;23.25;21.75;;;;;10.61;66.26;97714.56;6239633;28;96310;-61
2022/12/24 05:53:03;;;;;;;;;20.80;19.40;;;;;10.58;66.31;97717.75;6225624;27;96627;-63
2022/12/24 05:56:10;;;;;;;;;23.40;21.00;;;;;10.45;66.78;97712.75;6240734;28;97004;-62
2022/12/24 05:59:14;;;;;;;;;20.60;19.60;;;;;10.45;67.32;97718.13;6242012;27;96257;-61
2022/12/24 06:02:18;;;;;;;;;16.75;16.75;;;;;10.49;68.00;97718.44;6215654;28;96820;-61
2022/12/24 06:05:21;;;;;;;;;17.00;17.00;;;;;10.57;68.64;97716.13;6239410;27;96317;-61
2022/12/24 06:08:26;;;;;;;;;17.00;16.00;;;;;10.65;68.74;97715.69;6254502;27;96386;-61
2022/12/24 06:11:30;;;;;;;;;19.00;16.00;;;;;10.76;68.74;97716.63;6248641;27;96335;-61
2022/12/24 06:14:33;;;;;;;;;18.00;17.50;;;;;10.86;68.56;97714.88;6252825;27;96206;-61
2022/12/24 06:17:36;;;;;;;;;16.00;15.00;;;;;11.02;68.67;97723.13;6257637;27;96953;-61
2022/12/24 06:20:40;;;;;;;;;16.60;15.00;;;;;11.09;68.54;97721.84;6242382;27;96265;-62
2022/12/24 06:23:46;;;;;;;;;16.00;16.00;;;;;11.19;68.04;97721.97;6260939;27;96515;-61
2022/12/24 06:26:49;;;;;;;;;18.40;17.00;;;;;11.27;67.20;97724.22;6258588;27;96460;-61
2022/12/24 06:29:52;;;;;;;;;21.00;20.00;;;;;11.34;66.38;97721.31;6238664;27;96291;-62
2022/12/24 06:32:56;;;;;;;;;23.00;21.40;;;;;11.38;65.69;97721.63;6241930;27;96638;-62
2022/12/24 06:35:59;;;;;;;;;21.25;20.00;;;;;11.35;65.16;97725.63;6245064;27;96210;-61
2022/12/24 06:39:04;;;;;;;;;20.00;17.60;;;;;11.37;64.78;97733.50;6256791;27;96428;-61
2022/12/24 06:42:08;;;;;;;;;21.75;19.75;;;;;11.34;64.88;97740.19;6241650;27;96434;-61
2022/12/24 06:45:12;;;;;;;;;20.67;19.00;;;;;11.30;65.05;97752.56;6251637;27;96508;-61
2022/12/24 06:48:16;;;;;;;;;24.60;21.80;;;;;11.30;65.13;97745.28;6253387;27;96227;-61
2022/12/24 06:51:21;;;;;;;;;22.50;21.50;;;;;11.19;65.18;97723.88;6218883;27;96324;-62
2022/12/24 06:54:26;;;;;;;;;19.75;17.50;;;;;11.32;65.20;97752.31;6254295;27;96293;-61
2022/12/24 06:57:30;;;;;;;;;19.80;18.00;;;;;11.36;65.92;97764.22;6248195;27;96395;-61
2022/12/24 07:00:33;;;;;;;;;17.60;17.00;;;;;11.44;65.71;97759.19;6243986;27;96486;-61
2022/12/24 07:03:37;;;;;;;;;18.00;16.50;;;;;11.52;65.62;97768.72;6250184;27;96793;-61
2022/12/24 07:06:41;;;;;;;;;21.50;20.50;;;;;11.56;65.67;97769.84;6246674;27;97037;-64
2022/12/24 07:09:45;;;;;;;;;23.40;22.00;;;;;11.60;65.56;97779.88;6237936;28;96476;-61
2022/12/24 07:12:49;;;;;;;;;19.00;19.00;;;;;11.65;65.60;97782.63;6236659;28;96632;-61
2022/12/24 07:15:57;;;;;;;;;21.00;19.40;;;;;11.67;65.68;97785.91;6223886;28;96917;-61
2022/12/24 07:19:01;;;;;;;;;19.50;18.00;;;;;11.73;65.72;97781.38;6223169;28;96279;-60
2022/12/24 07:22:04;;;;;;;;;26.50;22.50;;;;;11.79;65.80;97787.63;6239866;28;96261;-61
2022/12/24 07:25:18;;;;;;;;;22.20;19.60;;;;;11.86;65.22;97790.94;6236123;27;96267;-62
2022/12/24 07:28:21;;;;;;;;;25.20;22.00;;;;;11.89;65.24;97798.53;6237204;28;96680;-64
2022/12/24 07:31:30;;;;;;;;;22.80;22.80;;;;;11.94;65.16;97798.56;6235337;27;96396;-62
2022/12/24 07:34:33;;;;;;;;;26.40;24.40;;;;;11.97;64.74;97801.56;6240727;28;96513;-61
2022/12/24 07:37:37;;;;;;;;;26.00;25.00;;;;;11.98;64.52;97803.19;6217974;28;97398;-62
2022/12/24 07:40:41;;;;;;;;;28.00;25.60;;;;;12.00;63.99;97806.47;6239736;28;97230;-61
2022/12/24 07:43:45;;;;;;;;;25.60;24.40;;;;;12.00;63.92;97797.56;6215673;27;97559;-62
2022/12/24 07:46:48;;;;;;;;;31.00;28.00;;;;;11.93;64.06;97807.75;6239440;28;96313;-62
2022/12/24 07:49:51;;;;;;;;;26.00;25.00;;;;;11.91;64.05;97804.50;6219449;28;96753;-62
2022/12/24 07:52:55;;;;;;;;;30.00;28.20;;;;;11.76;64.93;97809.75;6216452;27;96852;-62
2022/12/24 07:55:59;;;;;;;;;28.00;26.20;;;;;11.77;65.10;97816.78;6238888;27;96858;-61
2022/12/24 07:59:03;;;;;;;;;28.00;24.50;;;;;11.75;65.88;97816.22;6236076;27;97537;-65
2022/12/24 08:02:06;;;;;;;;;29.00;27.80;;;;;11.79;65.83;97818.16;6236288;27;96722;-62
2022/12/24 08:05:19;;;;;;;;;29.00;26.20;;;;;11.81;65.83;97826.81;6244734;27;96529;-62
2022/12/24 08:08:24;;;;;;;;;32.00;30.00;;;;;11.82;66.26;97827.66;6248874;27;97011;-61
2022/12/24 08:11:29;;;;;;;;;31.00;29.00;;;;;11.87;65.98;97823.13;6250889;27;97838;-62
2022/12/24 08:14:32;;;;;;;;;30.50;27.50;;;;;11.89;66.18;97828.25;6254158;27;96596;-62
2022/12/24 08:17:36;;;;;;;;;32.60;28.60;;;;;11.93;66.14;97824.75;6233713;27;96843;-63
2022/12/24 08:20:40;;;;;;;;;29.00;28.20;;;;;11.99;65.94;97834.56;6235732;28;97320;-64
2022/12/24 08:23:46;;;;;;;;;29.50;28.00;;;;;12.01;65.86;97843.22;6236055;27;96369;-62
2022/12/24 08:26:51;;;;;;;;;28.40;28.00;;;;;12.08;65.73;97845.69;6225354;27;97277;-62
2022/12/24 08:29:54;;;;;;;;;23.20;22.60;;;;;12.11;65.77;97847.91;6240404;27;96322;-61
2022/12/24 08:32:57;;;;;;;;;27.60;26.40;;;;;12.23;65.51;97853.13;6237396;27;96804;-61
2022/12/24 08:36:02;;;;;;;;;25.00;24.00;;;;;12.28;65.13;97867.50;6243938;27;96469;-61
2022/12/24 08:39:07;;;;;;;;;25.00;23.20;;;;;12.31;65.08;97858.06;6243325;27;97718;-61
2022/12/24 08:42:12;;;;;;;;;24.20;22.60;;;;;12.42;65.25;97868.69;6242638;27;96513;-63
2022/12/24 08:45:16;;;;;;;;;25.00;24.00;;;;;12.68;64.52;97874.31;6239726;27;97548;-61
2022/12/24 08:48:20;;;;;;;;;24.40;23.00;;;;;12.88;63.89;97875.25;6214606;27;96539;-61
2022/12/24 08:51:23;;;;;;;;;19.50;17.75;;;;;12.97;63.35;97868.28;6238915;27;96543;-61
2022/12/24 08:54:26;;;;;;;;;20.50;19.00;;;;;13.94;60.88;97865.97;6242530;27;96804;-61
2022/12/24 08:57:31;;;;;;;;;25.00;22.60;;;;;16.20;54.64;97863.88;6236403;27;96358;-62
2022/12/24 09:00:35;;;;;;;;;21.00;20.50;;;;;17.50;50.01;97875.72;6236169;27;96980;-62
2022/12/24 09:03:38;;;;;;;;;24.00;22.00;;;;;19.17;45.16;97871.31;6233365;28;97035;-62
2022/12/24 09:06:42;;;;;;;;;17.20;16.20;;;;;20.78;41.92;97868.91;6218111;28;96678;-65
2022/12/24 09:09:45;;;;;;;;;19.25;16.50;;;;;22.82;38.01;97873.72;6235576;28;96640;-59
2022/12/24 09:12:51;;;;;;;;;21.60;20.00;;;;;23.81;35.60;97860.59;6218785;28;97308;-61
2022/12/24 09:15:55;;;;;;;;;18.40;17.00;;;;;23.29;35.48;97882.81;6232891;28;96583;-60
2022/12/24 09:18:58;;;;;;;;;15.60;15.00;;;;;22.38;36.72;97886.63;6236662;27;96706;-59
2022/12/24 09:22:01;;;;;;;;;16.00;14.80;;;;;21.82;37.56;97892.16;6237696;28;97044;-61
2022/12/24 09:25:06;;;;;;;;;17.00;16.60;;;;;20.92;39.13;97901.72;6235645;28;96600;-60
2022/12/24 09:28:11;;;;;;;;;15.20;15.00;;;;;20.14;40.45;97898.31;6235973;28;96412;-62
2022/12/24 09:31:14;;;;;;;;;14.00;14.00;;;;;19.26;41.87;97893.28;6238257;28;96197;-60
2022/12/24 09:34:18;;;;;;;;;12.00;11.00;;;;;18.55;43.27;97902.69;6237504;28;97652;-60
2022/12/24 09:37:27;;;;;;;;;13.00;12.00;;;;;17.85;44.75;97907.22;6236622;28;96403;-60
2022/12/24 09:40:36;;;;;;;;;12.00;11.00;;;;;17.36;46.10;97916.47;6237421;27;96535;-61
2022/12/24 09:43:46;;;;;;;;;9.00;9.00;;;;;16.90;47.28;97899.81;6236698;28;96714;-62
2022/12/24 09:46:53;;;;;;;;;13.00;11.80;;;;;16.28;48.94;97900.50;6236428;28;96775;-61
2022/12/24 09:50:00;;;;;;;;;11.40;11.00;;;;;15.93;50.14;97915.16;6235455;28;96435;-60
2022/12/24 09:53:12;;;;;;;;;10.00;9.00;;;;;15.61;51.07;97912.84;6235444;28;96667;-60
2022/12/24 09:56:20;;;;;;;;;12.00;10.20;;;;;15.33;52.05;97916.16;6234824;28;97475;-60
2022/12/24 09:59:30;;;;;;;;;9.00;8.60;;;;;15.06;52.70;97911.03;6235659;27;96868;-60
2022/12/24 10:02:33;;;;;;;;;10.00;9.00;;;;;14.66;54.18;97918.13;6231941;28;96543;-60
2022/12/24 10:05:42;;;;;;;;;8.00;7.50;;;;;14.50;54.77;97932.78;6212749;27;96646;-60
2022/12/24 10:09:02;;;;;;;;;9.00;8.25;;;;;14.39;55.29;97941.19;6236565;27;96937;-60
2022/12/24 10:12:15;;;;;;;;;9.20;7.80;;;;;14.25;55.80;97933.53;6237051;27;96249;-59
2022/12/24 10:15:27;;;;;;;;;8.00;8.00;;;;;14.30;55.65;97946.28;6236343;27;96278;-60
2022/12/24 10:18:42;;;;;;;;;6.00;5.40;;;;;14.21;55.38;97918.09;6218191;28;96490;-60
2022/12/24 10:22:03;;;;;;;;;7.00;7.00;;;;;14.35;55.61;97940.06;6233745;28;97877;-61
2022/12/24 10:25:16;;;;;;;;;8.40;8.00;;;;;14.33;55.49;97945.75;6232946;28;96898;-61
2022/12/24 10:28:24;;;;;;;;;8.60;8.00;;;;;14.36;55.36;97952.53;6230062;28;96599;-60
2022/12/24 10:31:32;;;;;;;;;7.00;7.00;;;;;14.37;54.98;97944.16;6238207;27;96466;-61
2022/12/24 10:34:40;;;;;;;;;8.00;6.00;;;;;14.42;54.90;97959.59;6221752;28;96378;-60
2022/12/24 10:37:46;;;;;;;;;9.00;8.60;;;;;14.37;55.00;97963.13;6240924;27;97152;-62
2022/12/24 10:40:53;;;;;;;;;6.50;6.50;;;;;14.36;54.79;97953.38;6236258;28;96274;-61
2022/12/24 10:43:59;;;;;;;;;8.00;7.00;;;;;14.34;54.74;97960.94;6231996;27;96337;-59
2022/12/24 10:47:07;;;;;;;;;8.00;7.60;;;;;14.28;54.49;97959.28;6249386;27;96681;-60
2022/12/24 10:50:16;;;;;;;;;7.00;7.00;;;;;14.17;54.66;97955.72;6248737;27;96678;-59
2022/12/24 10:53:25;;;;;;;;;8.00;8.00;;;;;14.11;54.87;97959.53;6241348;27;96459;-60
2022/12/24 10:56:28;;;;;;;;;9.00;8.00;;;;;14.11;54.76;97966.84;6225021;27;96855;-59
2022/12/24 10:59:42;;;;;;;;;10.40;9.00;;;;;14.16;54.60;97964.97;6233990;27;96402;-62
2022/12/24 11:02:47;;;;;;;;;8.00;7.00;;;;;14.13;54.40;97964.66;6237759;28;96447;-59
2022/12/24 11:06:09;;;;;;;;;8.40;8.40;;;;;14.17;54.46;97968.50;6237319;27;96591;-61
2022/12/24 11:09:22;;;;;;;;;9.00;8.50;;;;;14.27;54.08;97968.50;6240858;27;97753;-60
2022/12/24 11:12:28;;;;;;;;;8.00;7.00;;;;;14.52;53.29;97975.91;6244448;27;96167;-61
2022/12/24 11:15:34;;;;;;;;;6.20;6.00;;;;;14.77;52.66;97986.78;6246625;27;96351;-60
2022/12/24 11:18:46;;;;;;;;;8.00;7.00;;;;;14.81;52.20;97990.56;6232990;27;96494;-61
2022/12/24 11:22:01;;;;;;;;;7.00;7.00;;;;;14.70;52.28;97997.91;6236801;28;96913;-60
2022/12/24 11:25:07;;;;;;;;;7.40;7.40;;;;;14.50;52.85;97997.88;6241434;28;96360;-60
2022/12/24 11:28:19;;;;;;;;;8.40;8.40;;;;;14.40;53.70;98003.28;6239160;28;96873;-62
2022/12/24 11:31:24;;;;;;;;;8.00;7.40;;;;;14.23;54.14;98016.19;6218604;28;98743;-62
2022/12/24 11:34:31;;;;;;;;;8.00;7.00;;;;;14.24;54.27;98020.53;6237831;28;96044;-62
2022/12/24 11:37:35;;;;;;;;;11.00;9.20;;;;;14.04;54.45;98005.03;6240895;27;96547;-63
2022/12/24 11:40:42;;;;;;;;;6.00;6.00;;;;;14.05;55.11;98030.22;6239627;27;96354;-61
2022/12/24 11:43:48;;;;;;;;;7.50;6.50;;;;;13.89;55.78;98022.03;6239333;27;97410;-63
2022/12/24 11:46:55;;;;;;;;;11.00;10.60;;;;;13.85;56.00;98033.66;6237305;27;96687;-62
2022/12/24 11:50:20;;;;;;;;;12.20;11.00;;;;;13.84;55.97;98024.72;6240639;27;96654;-63
2022/12/24 11:53:28;;;;;;;;;11.00;10.00;;;;;13.78;55.96;98024.97;6236097;27;96527;-61
2022/12/24 11:56:40;;;;;;;;;9.00;8.25;;;;;13.82;55.77;98020.66;6238694;27;96751;-62
2022/12/24 11:59:47;;;;;;;;;10.00;9.00;;;;;13.77;55.79;98039.59;6236973;28;96458;-62
2022/12/24 12:02:52;;;;;;;;;9.00;8.00;;;;;13.84;56.04;98042.88;6223876;28;96470;-59
2022/12/24 12:06:00;;;;;;;;;9.25;9.00;;;;;13.65;56.61;98045.19;6241502;27;96786;-61
2022/12/24 12:09:11;;;;;;;;;9.00;8.00;;;;;13.64;57.05;98062.53;6242623;27;96390;-61
2022/12/24 12:12:21;;;;;;;;;10.40;8.40;;;;;13.50;57.92;98063.22;6236527;27;96986;-62
2022/12/24 12:15:28;;;;;;;;;8.00;7.80;;;;;13.57;57.65;98072.78;6224114;28;98440;-61
2022/12/24 12:18:37;;;;;;;;;9.40;7.60;;;;;13.52;58.56;98080.88;6241122;27;96241;-63
2022/12/24 12:21:47;;;;;;;;;10.20;9.00;;;;;13.32;59.82;98088.84;6239226;27;97502;-62
2022/12/24 12:24:55;;;;;;;;;7.25;7.00;;;;;13.22;61.19;98091.47;6239533;27;96173;-60
2022/12/24 12:28:02;;;;;;;;;7.80;6.80;;;;;13.17;61.46;98102.22;6242623;27;96679;-62
2022/12/24 12:31:12;;;;;;;;;11.00;11.00;;;;;13.20;61.77;98105.22;6245736;27;96687;-61
2022/12/24 12:34:24;;;;;;;;;10.00;9.40;;;;;13.26;61.42;98114.22;6219191;28;96639;-61
2022/12/24 12:37:36;;;;;;;;;10.00;10.00;;;;;13.19;61.70;98127.16;6238648;27;96316;-59
2022/12/24 12:40:58;;;;;;;;;11.00;11.00;;;;;13.16;61.78;98127.66;6238501;27;96597;-61
2022/12/24 12:44:30;;;;;;;;;12.40;12.00;;;;;13.11;62.61;98135.69;6237919;27;97054;-60
2022/12/24 12:47:51;;;;;;;;;12.00;11.00;;;;;13.14;62.51;98144.19;6236930;27;96547;-60
2022/12/24 12:51:04;;;;;;;;;11.60;11.60;;;;;13.07;62.94;98148.94;6244308;27;96003;-59
2022/12/24 12:54:24;;;;;;;;;13.00;12.00;;;;;13.04;62.91;98157.56;6238600;27;96505;-61
2022/12/24 12:57:32;;;;;;;;;12.40;11.00;;;;;12.90;63.61;98165.25;6239281;27;96763;-60
2022/12/24 13:00:41;;;;;;;;;12.40;11.00;;;;;12.86;63.94;98180.34;6237736;28;96255;-59
2022/12/24 13:04:07;;;;;;;;;10.00;9.00;;;;;12.86;63.84;98180.34;6239269;28;96270;-61
2022/12/24 13:07:29;;;;;;;;;11.40;10.40;;;;;12.78;63.74;98188.09;6238625;27;96273;-59
2022/12/24 13:10:53;;;;;;;;;9.60;9.00;;;;;12.70;64.38;98197.50;6238608;28;96276;-60
2022/12/24 13:14:27;;;;;;;;;14.60;13.00;;;;;12.51;65.32;98210.47;6234891;27;96270;-61
2022/12/24 13:17:50;;;;;;;;;10.00;10.00;;;;;12.47;65.96;98212.06;6233962;27;97194;-60
2022/12/24 13:20:54;;;;;;;;;13.00;12.00;;;;;12.44;66.22;98217.16;6237684;27;96290;-60
2022/12/24 13:24:15;;;;;;;;;13.00;12.00;;;;;12.46;65.89;98217.75;6236504;28;96648;-60
2022/12/24 13:27:24;;;;;;;;;11.00;10.40;;;;;12.45;66.46;98233.13;6241640;27;97082;-60
2022/12/24 13:30:38;;;;;;;;;11.40;11.00;;;;;12.55;66.43;98238.69;6242309;27;96875;-60
2022/12/24 13:33:48;;;;;;;;;13.00;12.50;;;;;12.61;66.46;98247.66;6249166;27;97022;-60
2022/12/24 13:37:19;;;;;;;;;13.00;11.60;;;;;12.65;66.55;98251.53;6218858;27;98540;-61
2022/12/24 13:40:24;;;;;;;;;9.60;9.60;;;;;12.52;66.90;98235.63;6235814;27;96888;-60
2022/12/24 13:44:02;;;;;;;;;11.33;10.33;;;;;12.74;66.67;98255.41;6233911;27;96495;-59
2022/12/24 13:47:20;;;;;;;;;13.00;12.00;;;;;12.72;66.82;98254.84;6237684;27;96438;-62
2022/12/24 13:50:38;;;;;;;;;10.25;9.25;;;;;12.69;66.94;98268.06;6232924;28;96787;-60
2022/12/24 13:53:43;;;;;;;;;11.60;11.60;;;;;12.69;67.26;98268.88;6234595;27;96252;-61
2022/12/24 13:56:47;;;;;;;;;11.60;10.60;;;;;12.66;67.13;98274.75;6248357;27;96170;-61
2022/12/24 13:59:59;;;;;;;;;11.00;9.80;;;;;12.65;67.44;98283.97;6244095;27;96200;-60
2022/12/24 14:03:14;;;;;;;;;13.00;12.00;;;;;12.54;67.16;98277.59;6238777;27;97089;-59
2022/12/24 14:06:24;;;;;;;;;12.00;11.00;;;;;12.61;67.45;98299.03;6236836;27;97858;-59
2022/12/24 14:09:31;;;;;;;;;12.00;11.00;;;;;12.61;67.48;98311.75;6241741;27;96453;-60
2022/12/24 14:12:47;;;;;;;;;12.80;12.20;;;;;12.65;67.32;98316.41;6240794;27;96227;-59
2022/12/24 14:16:04;;;;;;;;;12.00;11.00;;;;;12.69;66.98;98322.16;6245756;27;96404;-61
2022/12/24 14:19:14;;;;;;;;;13.20;11.80;;;;;12.67;67.27;98326.97;6243171;27;96802;-61
2022/12/24 14:22:27;;;;;;;;;14.00;12.00;;;;;12.59;67.70;98323.63;6241545;27;96519;-61
2022/12/24 14:25:31;;;;;;;;;11.80;11.00;;;;;12.49;68.02;98342.41;6223509;28;96664;-61
2022/12/24 14:28:41;;;;;;;;;15.00;14.00;;;;;12.49;67.82;98336.19;6240806;27;96402;-61
2022/12/24 14:31:52;;;;;;;;;15.40;12.60;;;;;12.44;67.82;98336.94;6210226;27;98654;-61
2022/12/24 14:35:07;;;;;;;;;22.00;18.00;;;;;12.45;67.84;98341.28;6240564;27;96645;-61
2022/12/24 14:38:17;;;;;;;;;20.80;18.80;;;;;12.47;67.30;98349.13;6221172;28;96673;-60
2022/12/24 14:41:46;;;;;;;;;18.00;17.00;;;;;12.44;67.41;98355.03;6217679;28;96280;-60
2022/12/24 14:44:58;;;;;;;;;19.60;19.60;;;;;12.45;67.24;98352.09;6231070;27;96998;-61